createdAt,value
2018-08-20T00:00:51.401Z,12.65
2018-08-20T00:05:59.203Z,12.68
2018-08-20T00:10:55.501Z,14.73
2018-08-20T00:15:48.415Z,13.25
2018-08-20T00:20:41.388Z,15.35
2018-08-20T00:25:34.470Z,14.53
2018-08-20T00:30:27.402Z,12.03
2018-08-20T00:35:20.530Z,12.55
2018-08-20T00:40:13.486Z,11.97
2018-08-20T00:45:06.638Z,11.90
2018-08-20T00:49:59.635Z,14.10
2018-08-20T00:54:52.681Z,13.45
2018-08-20T00:59:45.632Z,13.08
2018-08-20T01:04:38.695Z,12.70
2018-08-20T01:09:31.597Z,11.65
2018-08-20T01:14:24.713Z,14.15
2018-08-20T01:19:18.042Z,14.60
2018-08-20T01:24:11.689Z,12.90
2018-08-20T01:29:04.803Z,14.33
2018-08-20T01:33:57.725Z,10.90
2018-08-20T01:38:50.693Z,14.07
2018-08-20T01:43:43.668Z,14.35
2018-08-20T01:48:36.620Z,14.63
2018-08-20T01:53:29.770Z,14.80
2018-08-20T01:58:22.714Z,11.08
2018-08-20T02:03:15.749Z,12.53
2018-08-20T02:08:08.850Z,14.47
2018-08-20T02:13:01.800Z,14.58
2018-08-20T02:17:55.448Z,13.75
2018-08-20T02:22:48.532Z,13.83
2018-08-20T02:27:41.542Z,14.87
2018-08-20T02:32:34.830Z,14.95
2018-08-20T02:37:31.856Z,13.80
2018-08-20T02:42:24.938Z,16.27
2018-08-20T02:47:17.965Z,13.38
2018-08-20T02:52:10.907Z,13.95
2018-08-20T02:57:03.931Z,12.23
2018-08-20T03:01:57.063Z,12.50
2018-08-20T03:06:50.016Z,12.55
2018-08-20T03:11:43.111Z,14.05
2018-08-20T03:16:36.622Z,13.85
2018-08-20T03:21:29.813Z,13.32
2018-08-20T03:26:22.789Z,14.80
2018-08-20T03:31:15.790Z,14.28
2018-08-20T03:36:08.905Z,13.43
2018-08-20T03:41:01.985Z,14.25
2018-08-20T03:45:55.134Z,13.65
2018-08-20T03:50:48.189Z,15.60
2018-08-20T03:55:41.181Z,15.83
2018-08-20T04:00:34.353Z,17.92
2018-08-20T04:05:27.419Z,13.85
2018-08-20T04:10:20.382Z,15.78
2018-08-20T04:15:13.281Z,13.20
2018-08-20T04:20:07.187Z,16.62
2018-08-20T04:25:00.311Z,13.08
2018-08-20T04:29:54.147Z,16.15
2018-08-20T04:34:47.117Z,12.78
2018-08-20T04:39:41.115Z,12.13
2018-08-20T04:44:35.740Z,14.25
2018-08-20T04:49:28.809Z,13.08
2018-08-20T04:54:21.802Z,12.80
2018-08-20T04:59:14.838Z,13.08
2018-08-20T05:04:07.938Z,13.03
2018-08-20T05:09:01.613Z,11.40
2018-08-20T05:13:54.998Z,10.98
2018-08-20T05:18:47.983Z,12.10
2018-08-20T05:23:40.951Z,12.82
2018-08-20T05:28:33.950Z,11.12
2018-08-20T05:33:26.929Z,9.15
2018-08-20T05:38:20.425Z,10.00
2018-08-20T05:43:13.415Z,9.85
2018-08-20T05:48:06.633Z,12.82
2018-08-20T05:52:59.675Z,13.70
2018-08-20T05:57:53.477Z,9.73
2018-08-20T06:02:46.963Z,10.05
2018-08-20T06:07:40.199Z,8.05
2018-08-20T06:12:33.571Z,7.47
2018-08-20T06:17:26.608Z,12.13
2018-08-20T06:22:19.580Z,10.90
2018-08-20T06:27:12.736Z,12.23
2018-08-20T06:32:06.096Z,6.47
2018-08-20T06:36:59.212Z,8.38
2018-08-20T06:41:52.302Z,8.73
2018-08-20T06:46:45.339Z,10.50
2018-08-20T06:51:38.837Z,8.25
2018-08-20T06:56:31.830Z,15.08
2018-08-20T07:01:25.125Z,11.22
2018-08-20T07:06:19.248Z,9.15
2018-08-20T07:11:12.249Z,7.47
2018-08-20T07:16:06.552Z,8.53
2018-08-20T07:20:59.545Z,8.63
2018-08-20T07:25:53.197Z,7.40
2018-08-20T07:30:46.362Z,9.03
2018-08-20T07:35:39.601Z,8.45
2018-08-20T07:40:33.159Z,7.90
2018-08-20T07:45:26.153Z,4.85
2018-08-20T07:50:19.152Z,7.50
2018-08-20T07:55:12.122Z,8.45
2018-08-20T08:00:07.354Z,12.65
2018-08-20T08:05:00.454Z,8.93
2018-08-20T08:09:53.497Z,7.00
2018-08-20T08:14:47.460Z,11.43
2018-08-20T08:19:40.754Z,9.45
2018-08-20T08:24:33.666Z,8.65
2018-08-20T08:29:26.869Z,9.63
2018-08-20T08:34:19.852Z,14.53
2018-08-20T08:39:13.023Z,8.25
2018-08-20T08:44:06.250Z,10.40
2018-08-20T08:48:59.302Z,10.48
2018-08-20T08:53:52.461Z,9.20
2018-08-20T08:58:45.500Z,8.58
2018-08-20T09:03:38.628Z,9.75
2018-08-20T09:08:32.522Z,12.53
2018-08-20T09:13:28.609Z,6.60
2018-08-20T09:18:21.663Z,11.88
2018-08-20T09:23:14.820Z,11.53
2018-08-20T09:28:07.890Z,8.15
2018-08-20T09:33:00.926Z,7.78
2018-08-20T09:37:54.126Z,10.85
2018-08-20T09:42:47.064Z,11.35
2018-08-20T09:47:40.940Z,8.83
2018-08-20T09:52:33.994Z,8.08
2018-08-20T09:57:27.056Z,8.33
2018-08-20T10:02:20.019Z,9.68
2018-08-20T10:07:13.533Z,10.20
2018-08-20T10:12:06.680Z,6.75
2018-08-20T10:16:59.841Z,8.68
2018-08-20T10:21:53.945Z,11.55
2018-08-20T10:26:47.444Z,11.20
2018-08-20T10:31:40.438Z,7.90
2018-08-20T10:36:33.808Z,11.18
2018-08-20T10:41:26.785Z,11.08
2018-08-20T10:46:24.239Z,8.98
2018-08-20T10:51:17.246Z,12.95
2018-08-20T10:56:10.255Z,9.03
2018-08-20T11:01:03.482Z,9.53
2018-08-20T11:05:56.535Z,11.05
2018-08-20T11:10:49.669Z,7.75
2018-08-20T11:15:42.676Z,9.33
2018-08-20T11:20:35.647Z,8.05
2018-08-20T11:25:28.740Z,9.00
2018-08-20T11:30:22.129Z,8.88
2018-08-20T11:35:15.077Z,8.85
2018-08-20T11:40:08.685Z,9.18
2018-08-20T11:45:01.851Z,7.33
2018-08-20T11:49:54.885Z,10.20
2018-08-20T11:54:47.894Z,10.40
2018-08-20T11:59:40.843Z,9.35
2018-08-20T12:04:33.795Z,10.50
2018-08-20T12:09:26.804Z,9.68
2018-08-20T12:14:19.838Z,7.12
2018-08-20T12:19:12.854Z,11.90
2018-08-20T12:24:06.532Z,6.83
2018-08-20T12:29:00.112Z,8.15
2018-08-20T12:33:53.111Z,9.40
2018-08-20T12:38:46.117Z,7.83
2018-08-20T12:43:39.854Z,7.55
2018-08-20T12:48:35.861Z,7.17
2018-08-20T12:53:28.911Z,9.80
2018-08-20T12:58:22.121Z,9.30
2018-08-20T13:03:15.127Z,10.00
2018-08-20T13:08:10.199Z,7.75
2018-08-20T13:13:04.087Z,9.50
2018-08-20T13:17:57.233Z,10.53
2018-08-20T13:22:50.367Z,8.95
2018-08-20T13:27:43.436Z,9.48
2018-08-20T13:32:36.466Z,10.13
2018-08-20T13:37:30.096Z,8.78
2018-08-20T13:42:23.098Z,8.88
2018-08-20T13:47:16.125Z,11.10
2018-08-20T13:52:09.100Z,10.38
2018-08-20T13:57:02.110Z,8.88
2018-08-20T14:01:55.144Z,10.78
2018-08-20T14:06:48.108Z,8.98
2018-08-20T14:11:41.172Z,8.78
2018-08-20T14:16:34.200Z,8.18
2018-08-20T14:21:27.156Z,7.28
2018-08-20T14:26:20.312Z,9.40
2018-08-20T14:31:13.349Z,9.78
2018-08-20T14:36:06.940Z,7.55
2018-08-20T14:41:00.984Z,7.97
2018-08-20T14:45:59.557Z,10.28
2018-08-20T14:50:52.616Z,8.90
2018-08-20T14:55:45.760Z,7.03
2018-08-20T15:00:38.838Z,11.20
2018-08-20T15:05:31.936Z,11.15
2018-08-20T15:10:25.214Z,10.00
2018-08-20T15:15:18.404Z,8.60
2018-08-20T15:20:11.368Z,8.38
2018-08-20T15:25:04.714Z,10.60
2018-08-20T15:29:57.651Z,12.45
2018-08-20T15:34:50.664Z,8.60
2018-08-20T15:39:43.590Z,12.13
2018-08-20T15:44:37.594Z,11.05
2018-08-20T15:49:30.655Z,11.30
2018-08-20T15:54:23.631Z,12.85
2018-08-20T15:59:16.716Z,11.20
2018-08-20T16:04:09.768Z,9.73
2018-08-20T16:09:03.328Z,10.18
2018-08-20T16:13:56.379Z,10.53
2018-08-20T16:18:52.050Z,11.12
2018-08-20T16:23:51.608Z,13.00
2018-08-20T16:28:44.615Z,9.83
2018-08-20T16:33:37.635Z,11.33
2018-08-20T16:38:30.727Z,11.18
2018-08-20T16:43:23.814Z,13.53
2018-08-20T16:48:17.443Z,12.18
2018-08-20T16:53:10.462Z,15.38
2018-08-20T16:58:04.408Z,16.00
2018-08-20T17:02:57.722Z,11.95
2018-08-20T17:07:50.851Z,13.30
2018-08-20T17:12:43.871Z,11.95
2018-08-20T17:17:37.204Z,15.95
2018-08-20T17:22:30.255Z,15.78
2018-08-20T17:27:23.359Z,14.25
2018-08-20T17:32:16.396Z,14.23
2018-08-20T17:37:09.805Z,13.05
2018-08-20T17:42:02.933Z,14.47
2018-08-20T17:46:56.028Z,13.53
2018-08-20T17:51:49.725Z,12.70
2018-08-20T17:56:43.331Z,17.15
2018-08-20T18:01:37.514Z,14.90
2018-08-20T18:06:44.845Z,19.37
2018-08-20T18:11:42.361Z,11.45
2018-08-20T18:16:35.326Z,10.85
2018-08-20T18:21:28.379Z,13.62
2018-08-20T18:27:53.976Z,12.13
2018-08-20T18:32:47.014Z,11.25
2018-08-20T18:37:50.581Z,9.20
2018-08-20T18:42:46.968Z,13.45
2018-08-20T18:47:40.117Z,13.75
2018-08-20T18:52:33.272Z,12.20
2018-08-20T18:57:29.049Z,12.43
2018-08-20T19:02:33.988Z,11.30
2018-08-20T19:07:27.142Z,11.73
2018-08-20T19:12:20.251Z,10.98
2018-08-20T19:17:18.194Z,11.18
2018-08-20T19:22:17.148Z,10.48
2018-08-20T19:27:11.045Z,13.88
2018-08-20T19:32:04.044Z,10.53
2018-08-20T19:36:57.215Z,13.43
2018-08-20T19:41:50.362Z,13.28
2018-08-20T19:46:43.410Z,11.25
2018-08-20T19:51:38.293Z,12.05
2018-08-20T19:56:31.266Z,11.30
2018-08-20T20:01:25.314Z,11.48
2018-08-20T20:06:18.424Z,13.53
2018-08-20T20:11:19.281Z,10.08
2018-08-20T20:16:12.302Z,11.40
2018-08-20T20:21:05.396Z,11.33
2018-08-20T20:25:58.321Z,7.97
2018-08-20T20:30:51.379Z,10.18
2018-08-20T20:35:45.336Z,11.73
2018-08-20T20:40:38.380Z,11.22
2018-08-20T20:45:31.362Z,11.45
2018-08-20T20:50:27.009Z,11.25
2018-08-20T20:55:20.140Z,9.73
2018-08-20T21:00:13.089Z,10.58
2018-08-20T21:05:09.864Z,13.40
2018-08-20T21:10:02.998Z,11.90
2018-08-20T21:14:55.987Z,13.43
2018-08-20T21:19:48.977Z,9.88
2018-08-20T21:24:42.023Z,10.90
2018-08-20T21:29:34.972Z,10.30
2018-08-20T21:34:31.372Z,10.75
2018-08-20T21:39:24.427Z,11.00
2018-08-20T21:44:17.442Z,9.90
2018-08-20T21:49:11.057Z,10.63
2018-08-20T21:54:04.207Z,12.75
2018-08-20T21:58:57.216Z,11.63
2018-08-20T22:03:50.278Z,10.95
2018-08-20T22:08:43.395Z,10.53
2018-08-20T22:13:36.414Z,12.98
2018-08-20T22:18:34.122Z,10.95
2018-08-20T22:23:39.082Z,13.20
2018-08-20T22:28:20.159Z,10.55
2018-08-20T22:33:13.112Z,10.55
2018-08-20T22:38:06.697Z,11.25
2018-08-20T22:42:59.701Z,11.55
2018-08-20T22:47:52.818Z,9.98
2018-08-20T22:52:47.447Z,11.40
2018-08-20T22:57:49.354Z,11.38
2018-08-20T23:02:42.369Z,11.57
2018-08-20T23:07:35.370Z,13.13
2018-08-20T23:12:32.860Z,10.68
2018-08-20T23:17:25.826Z,11.85
2018-08-20T23:22:18.960Z,11.68
2018-08-20T23:27:11.947Z,8.50
2018-08-20T23:32:04.999Z,11.28
2018-08-20T23:36:57.934Z,11.73
2018-08-20T23:41:51.907Z,11.25
2018-08-20T23:46:46.642Z,12.18
2018-08-20T23:51:39.752Z,13.45
2018-08-20T23:56:32.804Z,13.43
